sensor_id;sensor_type;location;lat;lon;timestamp;temperature;humidity
47921;DHT22;33686;48.770;9.186;2022-09-09T18:46:54;18.50;99.90
47921;DHT22;33686;48.770;9.186;2022-09-09T18:49:20;18.50;99.90
47921;DHT22;33686;48.770;9.186;2022-09-09T18:51:46;18.50;99.90
47921;DHT22;33686;48.770;9.186;2022-09-09T18:54:13;18.50;99.90
47921;DHT22;33686;48.770;9.186;2022-09-09T18:56:40;18.60;99.90
47921;DHT22;33686;48.770;9.186;2022-09-09T18:59:06;18.60;99.90
47921;DHT22;33686;48.770;9.186;2022-09-09T19:01:32;18.60;99.90
47921;DHT22;33686;48.770;9.186;2022-09-09T19:04:00;18.50;99.90
47921;DHT22;33686;48.770;9.186;2022-09-09T19:06:26;18.50;99.90
47921;DHT22;33686;48.770;9.186;2022-09-09T19:08:52;18.50;99.90
47921;DHT22;33686;48.770;9.186;2022-09-09T19:11:20;18.50;99.90
47921;DHT22;33686;48.770;9.186;2022-09-09T19:13:50;18.50;99.90
47921;DHT22;33686;48.770;9.186;2022-09-09T19:16:16;18.40;99.90
47921;DHT22;33686;48.770;9.186;2022-09-09T19:18:42;18.40;99.90
47921;DHT22;33686;48.770;9.186;2022-09-09T19:21:16;18.40;99.90
47921;DHT22;33686;48.770;9.186;2022-09-09T19:23:43;18.40;99.90
47921;DHT22;33686;48.770;9.186;2022-09-09T19:26:08;18.40;99.90
47921;DHT22;33686;48.770;9.186;2022-09-09T19:28:36;18.30;99.90
47921;DHT22;33686;48.770;9.186;2022-09-09T19:31:03;18.30;99.90
47921;DHT22;33686;48.770;9.186;2022-09-09T19:33:28;18.30;99.90
47921;DHT22;33686;48.770;9.186;2022-09-09T19:36:01;18.30;99.90
47921;DHT22;33686;48.770;9.186;2022-09-09T19:38:27;18.20;99.90
47921;DHT22;33686;48.770;9.186;2022-09-09T19:40:53;18.20;99.90
47921;DHT22;33686;48.770;9.186;2022-09-09T19:43:19;18.20;99.90
47921;DHT22;33686;48.770;9.186;2022-09-09T19:46:06;18.10;99.90
47921;DHT22;33686;48.770;9.186;2022-09-09T19:48:32;18.00;99.90
47921;DHT22;33686;48.770;9.186;2022-09-09T19:51:04;18.00;99.90
47921;DHT22;33686;48.770;9.186;2022-09-09T19:53:38;18.00;99.90
47921;DHT22;33686;48.770;9.186;2022-09-09T19:56:04;17.90;99.90
47921;DHT22;33686;48.770;9.186;2022-09-09T19:58:30;17.90;99.90
47921;DHT22;33686;48.770;9.186;2022-09-09T20:01:04;17.90;99.90
47921;DHT22;33686;48.770;9.186;2022-09-09T20:03:29;17.80;99.90
47921;DHT22;33686;48.770;9.186;2022-09-09T20:05:55;17.80;99.90
47921;DHT22;33686;48.770;9.186;2022-09-09T20:08:21;17.80;99.90
47921;DHT22;33686;48.770;9.186;2022-09-09T20:10:51;17.80;99.90
47921;DHT22;33686;48.770;9.186;2022-09-09T20:13:16;17.70;99.90
47921;DHT22;33686;48.770;9.186;2022-09-09T20:15:42;17.70;99.90
47921;DHT22;33686;48.770;9.186;2022-09-09T20:18:08;17.70;99.90
47921;DHT22;33686;48.770;9.186;2022-09-09T20:20:33;17.60;99.90
47921;DHT22;33686;48.770;9.186;2022-09-09T20:22:59;17.60;99.90
47921;DHT22;33686;48.770;9.186;2022-09-09T20:25:24;17.60;99.90
47921;DHT22;33686;48.770;9.186;2022-09-09T20:27:50;17.60;99.90
47921;DHT22;33686;48.770;9.186;2022-09-09T20:30:15;17.60;99.90
47921;DHT22;33686;48.770;9.186;2022-09-09T20:32:41;17.50;99.90
47921;DHT22;33686;48.770;9.186;2022-09-09T20:35:07;17.50;99.90
47921;DHT22;33686;48.770;9.186;2022-09-09T20:37:32;17.50;99.90
47921;DHT22;33686;48.770;9.186;2022-09-09T20:39:58;17.40;99.90
47921;DHT22;33686;48.770;9.186;2022-09-09T20:42:26;17.40;99.90
47921;DHT22;33686;48.770;9.186;2022-09-09T20:44:51;17.40;99.90
47921;DHT22;33686;48.770;9.186;2022-09-09T20:47:17;17.40;99.90
47921;DHT22;33686;48.770;9.186;2022-09-09T20:49:43;17.40;99.90
47921;DHT22;33686;48.770;9.186;2022-09-09T20:52:08;17.40;99.90
47921;DHT22;33686;48.770;9.186;2022-09-09T20:54:35;17.30;99.90
47921;DHT22;33686;48.770;9.186;2022-09-09T20:57:04;17.30;99.90
47921;DHT22;33686;48.770;9.186;2022-09-09T20:59:29;17.30;99.90
47921;DHT22;33686;48.770;9.186;2022-09-09T21:01:55;17.30;99.90
47921;DHT22;33686;48.770;9.186;2022-09-09T21:04:21;17.30;99.90
47921;DHT22;33686;48.770;9.186;2022-09-09T21:06:47;17.20;99.90
47921;DHT22;33686;48.770;9.186;2022-09-09T21:09:14;17.20;99.90
47921;DHT22;33686;48.770;9.186;2022-09-09T21:11:40;17.20;99.90
47921;DHT22;33686;48.770;9.186;2022-09-09T21:14:06;17.30;99.90
47921;DHT22;33686;48.770;9.186;2022-09-09T21:16:32;17.20;99.90
47921;DHT22;33686;48.770;9.186;2022-09-09T21:18:57;17.20;99.90
47921;DHT22;33686;48.770;9.186;2022-09-09T21:21:26;17.10;99.90
47921;DHT22;33686;48.770;9.186;2022-09-09T21:23:55;17.20;99.90
47921;DHT22;33686;48.770;9.186;2022-09-09T21:26:22;17.10;99.90
47921;DHT22;33686;48.770;9.186;2022-09-09T21:28:47;17.10;99.90
47921;DHT22;33686;48.770;9.186;2022-09-09T21:31:19;17.00;99.90
47921;DHT22;33686;48.770;9.186;2022-09-09T21:33:50;17.00;99.90
47921;DHT22;33686;48.770;9.186;2022-09-09T21:36:15;17.00;99.90
47921;DHT22;33686;48.770;9.186;2022-09-09T21:38:41;16.90;99.90
47921;DHT22;33686;48.770;9.186;2022-09-09T21:41:08;17.00;99.90
47921;DHT22;33686;48.770;9.186;2022-09-09T21:43:37;16.90;99.90
47921;DHT22;33686;48.770;9.186;2022-09-09T21:46:07;16.80;99.90
47921;DHT22;33686;48.770;9.186;2022-09-09T21:48:33;16.80;99.90
47921;DHT22;33686;48.770;9.186;2022-09-09T21:51:03;16.80;99.90
47921;DHT22;33686;48.770;9.186;2022-09-09T21:53:30;16.80;99.90
47921;DHT22;33686;48.770;9.186;2022-09-09T21:56:03;16.80;99.90
47921;DHT22;33686;48.770;9.186;2022-09-09T21:58:31;16.80;99.90
